Blue Mountain, AL

3:43 PM CDT on May 25, 2015 (GMT -0500)
West Anniston | | Change Station
CLOSE
Current Station
Personal Weather Station
Location: Anniston, AL
Elevation: 728 ft
Nearby Weather Stations

Elev 728 ft 33.66 °N, 85.84 °W | Updated 5 minutes ago

Mostly Cloudy
Mostly Cloudy
78.6 °F
Feels Like 81 °F
N
0.0
Wind Variable Wind from SE

Today
High -- | Low -- °F
--% Chance of Precip.
Yesterday
High -- | Low -- °F
Precip. -- in
5:36 AM 7:44 PM
First Quarter, 51% visible
Pressure 30.17 in
Visibility 10.0 miles
Clouds Mostly Cloudy 3400 ft
Mostly Cloudy 4300 ft
Heat Index 81 °F
Dew Point 67 °F
Humidity 67%
Rainfall 0.00 in
Snow Depth Not available.
UV 4 out of 12
Pollen 2.20 out of 12
Air Quality Not available.
Flu Activity Sporadic
SPECI KANB 252026Z AUTO 21004KT 10SM BKN034 BKN043 26/21 A3017 RMK AO2 LTG DSNT ALQDS TSB05E20 T02610211

More Conditions Fewer Conditions

Pressure 30.17 in
Visibility 10.0 miles
Clouds Mostly Cloudy 3400 ft
Mostly Cloudy 4300 ft
Heat Index 81 °F
Dew Point 67 °F
Humidity 67%
Rainfall 0.00 in
Snow Depth Not available.
UV 4 out of 12
Pollen 2.20 out of 12
Air Quality Not available.
Flu Activity Sporadic
SPECI KANB 252026Z AUTO 21004KT 10SM BKN034 BKN043 26/21 A3017 RMK AO2 LTG DSNT ALQDS TSB05E20 T02610211

More Conditions Fewer Conditions

10-Day Weather Forecast

Almanac

Astronomy

May. 25, 2015 Rise Set
Actual Time
Civil Twilight
Nautical Twilight
Astronomical Twilight
Moon
Length of Visible Light
Length of Day
Tomorrow will be .
, % of the Moon is Illuminated

Today's Extremes

State Highs State Lows

Community

WunderPhotos

Upload Photos

1,824,127 photos uploaded!

WunderBlogs® & News

Nearby

Air Quality

  Air Quality AQ Index Pollutant
Not available.

Snow Depth

Station Depth Elevation

Earthquake Activity

City Distance Mag. Time & Date
Minimum magnitude displayed is 2.5.

Coastal Water Temperatures

Place Temperature

Stations

Nearby Weather Stations

Station Location Temp. Windchill Dew Point Humidity Wind Precip. Elev Updated Type